sensor_id;sensor_type;location;lat;lon;timestamp;pressure;altitude;pressure_sealevel;temperature;humidity
30708;BME280;17458;48.958;8.284;2022-09-01T00:00:12;100545.00;;;17.94;85.65
30708;BME280;17458;48.958;8.284;2022-09-01T00:02:57;100539.56;;;17.91;85.36
30708;BME280;17458;48.958;8.284;2022-09-01T00:05:41;100546.88;;;17.98;84.98
30708;BME280;17458;48.958;8.284;2022-09-01T00:08:27;100548.69;;;17.99;84.74
30708;BME280;17458;48.958;8.284;2022-09-01T00:11:11;100543.94;;;17.87;84.78
30708;BME280;17458;48.958;8.284;2022-09-01T00:13:56;100538.53;;;17.86;85.37
30708;BME280;17458;48.958;8.284;2022-09-01T00:16:41;100539.63;;;17.94;84.71
30708;BME280;17458;48.958;8.284;2022-09-01T00:19:25;100545.03;;;17.95;84.24
30708;BME280;17458;48.958;8.284;2022-09-01T00:22:09;100543.56;;;17.72;84.79
30708;BME280;17458;48.958;8.284;2022-09-01T00:24:53;100540.22;;;17.81;84.67
30708;BME280;17458;48.958;8.284;2022-09-01T00:27:38;100550.09;;;17.82;84.44
30708;BME280;17458;48.958;8.284;2022-09-01T00:30:22;100547.41;;;17.82;84.68
30708;BME280;17458;48.958;8.284;2022-09-01T00:33:07;100545.34;;;17.71;85.30
30708;BME280;17458;48.958;8.284;2022-09-01T00:35:51;100528.59;;;17.47;86.30
30708;BME280;17458;48.958;8.284;2022-09-01T00:38:34;100533.97;;;17.47;86.81
30708;BME280;17458;48.958;8.284;2022-09-01T00:41:22;100537.44;;;17.43;86.65
30708;BME280;17458;48.958;8.284;2022-09-01T00:44:10;100530.28;;;17.44;86.54
30708;BME280;17458;48.958;8.284;2022-09-01T00:46:56;100538.41;;;17.45;86.45
30708;BME280;17458;48.958;8.284;2022-09-01T00:49:44;100543.50;;;17.34;87.21
30708;BME280;17458;48.958;8.284;2022-09-01T00:52:34;100531.41;;;17.17;88.58
30708;BME280;17458;48.958;8.284;2022-09-01T00:55:29;100532.72;;;17.33;88.13
30708;BME280;17458;48.958;8.284;2022-09-01T00:58:13;100536.47;;;17.05;88.90
30708;BME280;17458;48.958;8.284;2022-09-01T01:00:57;100530.53;;;17.18;87.99
30708;BME280;17458;48.958;8.284;2022-09-01T01:03:42;100535.59;;;17.06;88.41
30708;BME280;17458;48.958;8.284;2022-09-01T01:06:28;100532.19;;;17.13;87.61
30708;BME280;17458;48.958;8.284;2022-09-01T01:09:20;100531.81;;;16.98;89.05
30708;BME280;17458;48.958;8.284;2022-09-01T01:12:05;100524.88;;;17.06;87.95
30708;BME280;17458;48.958;8.284;2022-09-01T01:14:50;100518.72;;;17.10;87.00
30708;BME280;17458;48.958;8.284;2022-09-01T01:17:35;100522.03;;;17.01;87.40
30708;BME280;17458;48.958;8.284;2022-09-01T01:20:21;100518.44;;;17.01;87.23
30708;BME280;17458;48.958;8.284;2022-09-01T01:23:38;100519.66;;;17.12;86.19
30708;BME280;17458;48.958;8.284;2022-09-01T01:26:23;100521.34;;;17.09;85.93
30708;BME280;17458;48.958;8.284;2022-09-01T01:29:07;100525.69;;;17.04;86.27
30708;BME280;17458;48.958;8.284;2022-09-01T01:31:54;100510.34;;;16.99;85.67
30708;BME280;17458;48.958;8.284;2022-09-01T01:34:39;100526.09;;;17.19;84.95
30708;BME280;17458;48.958;8.284;2022-09-01T01:37:26;100526.13;;;17.20;85.07
30708;BME280;17458;48.958;8.284;2022-09-01T01:40:12;100526.81;;;17.12;84.79
30708;BME280;17458;48.958;8.284;2022-09-01T01:42:59;100530.28;;;17.08;84.67
30708;BME280;17458;48.958;8.284;2022-09-01T01:45:50;100527.53;;;17.06;84.68
30708;BME280;17458;48.958;8.284;2022-09-01T01:48:38;100528.81;;;17.20;84.10
30708;BME280;17458;48.958;8.284;2022-09-01T01:51:24;100519.66;;;17.12;84.19
30708;BME280;17458;48.958;8.284;2022-09-01T01:54:11;100524.13;;;17.12;84.22
30708;BME280;17458;48.958;8.284;2022-09-01T01:56:57;100522.00;;;17.00;84.71
30708;BME280;17458;48.958;8.284;2022-09-01T01:59:43;100525.19;;;16.85;85.22
30708;BME280;17458;48.958;8.284;2022-09-01T02:02:28;100523.53;;;16.90;85.42
30708;BME280;17458;48.958;8.284;2022-09-01T02:05:12;100527.84;;;16.84;85.43
30708;BME280;17458;48.958;8.284;2022-09-01T02:07:59;100529.34;;;16.74;85.93
30708;BME280;17458;48.958;8.284;2022-09-01T02:10:49;100526.25;;;16.60;86.46
30708;BME280;17458;48.958;8.284;2022-09-01T02:13:34;100527.16;;;16.61;87.01
30708;BME280;17458;48.958;8.284;2022-09-01T02:16:18;100525.28;;;16.58;86.60
30708;BME280;17458;48.958;8.284;2022-09-01T02:19:06;100521.63;;;16.55;87.15
30708;BME280;17458;48.958;8.284;2022-09-01T02:21:52;100516.13;;;16.50;87.19
30708;BME280;17458;48.958;8.284;2022-09-01T02:24:39;100518.03;;;16.54;86.61
30708;BME280;17458;48.958;8.284;2022-09-01T02:27:28;100510.91;;;16.55;87.65
30708;BME280;17458;48.958;8.284;2022-09-01T02:30:13;100519.75;;;16.52;87.86
30708;BME280;17458;48.958;8.284;2022-09-01T02:32:58;100516.91;;;16.46;88.25
30708;BME280;17458;48.958;8.284;2022-09-01T02:35:50;100510.91;;;16.56;87.52
30708;BME280;17458;48.958;8.284;2022-09-01T02:38:35;100516.91;;;16.46;87.81
30708;BME280;17458;48.958;8.284;2022-09-01T02:41:19;100514.44;;;16.54;87.39
30708;BME280;17458;48.958;8.284;2022-09-01T02:44:05;100517.75;;;16.45;87.98
30708;BME280;17458;48.958;8.284;2022-09-01T02:46:56;100514.59;;;16.60;87.36
30708;BME280;17458;48.958;8.284;2022-09-01T02:49:42;100510.31;;;16.35;88.29
30708;BME280;17458;48.958;8.284;2022-09-01T02:52:25;100508.25;;;16.56;87.36
30708;BME280;17458;48.958;8.284;2022-09-01T02:55:14;100513.22;;;16.43;87.85
30708;BME280;17458;48.958;8.284;2022-09-01T02:58:06;100504.16;;;16.38;88.10
30708;BME280;17458;48.958;8.284;2022-09-01T03:00:55;100506.78;;;16.36;88.82
30708;BME280;17458;48.958;8.284;2022-09-01T03:03:40;100506.94;;;16.41;88.05
30708;BME280;17458;48.958;8.284;2022-09-01T03:06:24;100505.91;;;16.37;88.17
30708;BME280;17458;48.958;8.284;2022-09-01T03:09:11;100499.03;;;16.47;88.03
30708;BME280;17458;48.958;8.284;2022-09-01T03:11:57;100509.03;;;16.52;87.03
30708;BME280;17458;48.958;8.284;2022-09-01T03:14:41;100507.03;;;16.45;87.76
30708;BME280;17458;48.958;8.284;2022-09-01T03:17:25;100502.13;;;16.30;88.28
30708;BME280;17458;48.958;8.284;2022-09-01T03:20:09;100505.00;;;16.37;88.79
30708;BME280;17458;48.958;8.284;2022-09-01T03:22:54;100503.19;;;16.36;89.33
30708;BME280;17458;48.958;8.284;2022-09-01T03:25:42;100501.00;;;16.22;89.30
30708;BME280;17458;48.958;8.284;2022-09-01T03:28:27;100506.06;;;16.42;88.43
30708;BME280;17458;48.958;8.284;2022-09-01T03:31:13;100510.97;;;16.26;89.57
30708;BME280;17458;48.958;8.284;2022-09-01T03:33:59;100513.22;;;16.43;88.63
30708;BME280;17458;48.958;8.284;2022-09-01T03:36:48;100511.03;;;16.28;89.09
30708;BME280;17458;48.958;8.284;2022-09-01T03:39:41;100521.19;;;16.40;88.82
30708;BME280;17458;48.958;8.284;2022-09-01T03:42:26;100517.00;;;16.49;87.98
30708;BME280;17458;48.958;8.284;2022-09-01T03:45:12;100520.63;;;16.51;87.47
30708;BME280;17458;48.958;8.284;2022-09-01T03:47:59;100517.00;;;16.49;87.65
30708;BME280;17458;48.958;8.284;2022-09-01T03:50:44;100519.53;;;16.45;88.33
30708;BME280;17458;48.958;8.284;2022-09-01T03:53:32;100515.97;;;16.46;88.36
30708;BME280;17458;48.958;8.284;2022-09-01T03:56:21;100516.75;;;16.40;88.13
30708;BME280;17458;48.958;8.284;2022-09-01T03:59:08;100507.22;;;16.51;87.68
30708;BME280;17458;48.958;8.284;2022-09-01T04:01:59;100508.94;;;16.49;87.71
30708;BME280;17458;48.958;8.284;2022-09-01T04:04:45;100513.66;;;16.58;87.38
30708;BME280;17458;48.958;8.284;2022-09-01T04:07:29;100509.84;;;16.50;87.50
30708;BME280;17458;48.958;8.284;2022-09-01T04:10:14;100517.00;;;16.19;89.29
30708;BME280;17458;48.958;8.284;2022-09-01T04:13:00;100509.88;;;16.20;90.25
30708;BME280;17458;48.958;8.284;2022-09-01T04:15:45;100523.63;;;16.32;89.34
30708;BME280;17458;48.958;8.284;2022-09-01T04:18:29;100517.19;;;16.25;89.75
30708;BME280;17458;48.958;8.284;2022-09-01T04:21:13;100516.13;;;16.20;89.94
30708;BME280;17458;48.958;8.284;2022-09-01T04:23:57;100515.06;;;16.15;90.73
30708;BME280;17458;48.958;8.284;2022-09-01T04:26:43;100515.94;;;16.13;90.65
30708;BME280;17458;48.958;8.284;2022-09-01T04:29:29;100522.09;;;16.10;91.24
30708;BME280;17458;48.958;8.284;2022-09-01T04:32:15;100521.09;;;16.07;90.95
30708;BME280;17458;48.958;8.284;2022-09-01T04:35:03;100524.78;;;16.10;91.59
30708;BME280;17458;48.958;8.284;2022-09-01T04:37:49;100519.84;;;15.95;92.56
30708;BME280;17458;48.958;8.284;2022-09-01T04:40:39;100521.34;;;15.86;93.39
30708;BME280;17458;48.958;8.284;2022-09-01T04:43:23;100510.69;;;15.89;93.52
30708;BME280;17458;48.958;8.284;2022-09-01T04:46:07;100513.31;;;15.86;93.23
30708;BME280;17458;48.958;8.284;2022-09-01T04:48:55;100512.72;;;15.96;93.36
30708;BME280;17458;48.958;8.284;2022-09-01T04:51:42;100507.03;;;15.85;93.43
30708;BME280;17458;48.958;8.284;2022-09-01T04:54:28;100507.31;;;15.94;93.05
30708;BME280;17458;48.958;8.284;2022-09-01T04:57:16;100514.72;;;16.03;92.88
30708;BME280;17458;48.958;8.284;2022-09-01T05:00:00;100511.72;;;15.92;93.51
30708;BME280;17458;48.958;8.284;2022-09-01T05:02:46;100517.28;;;15.99;92.91
30708;BME280;17458;48.958;8.284;2022-09-01T05:05:44;100510.16;;;15.99;93.47
30708;BME280;17458;48.958;8.284;2022-09-01T05:08:29;100512.44;;;16.17;91.57
30708;BME280;17458;48.958;8.284;2022-09-01T05:11:21;100509.06;;;16.22;90.96
30708;BME280;17458;48.958;8.284;2022-09-01T05:14:06;100513.31;;;16.16;91.36
30708;BME280;17458;48.958;8.284;2022-09-01T05:16:56;100514.69;;;16.31;90.79
30708;BME280;17458;48.958;8.284;2022-09-01T05:19:44;100511.50;;;16.15;91.90
30708;BME280;17458;48.958;8.284;2022-09-01T05:22:30;100513.03;;;16.07;92.30
30708;BME280;17458;48.958;8.284;2022-09-01T05:25:20;100512.91;;;16.32;91.18
30708;BME280;17458;48.958;8.284;2022-09-01T05:28:06;100511.56;;;16.48;90.07
30708;BME280;17458;48.958;8.284;2022-09-01T05:30:53;100517.28;;;16.60;89.46
30708;BME280;17458;48.958;8.284;2022-09-01T05:33:38;100515.47;;;16.59;89.38
30708;BME280;17458;48.958;8.284;2022-09-01T05:36:29;100514.78;;;16.64;89.19
30708;BME280;17458;48.958;8.284;2022-09-01T05:39:18;100515.97;;;16.76;88.13
30708;BME280;17458;48.958;8.284;2022-09-01T05:42:02;100518.03;;;16.84;87.29
30708;BME280;17458;48.958;8.284;2022-09-01T05:44:51;100519.00;;;16.88;87.04
30708;BME280;17458;48.958;8.284;2022-09-01T05:47:37;100525.03;;;17.14;86.32
30708;BME280;17458;48.958;8.284;2022-09-01T05:50:21;100520.53;;;17.11;85.92
30708;BME280;17458;48.958;8.284;2022-09-01T05:53:06;100519.63;;;17.11;85.51
30708;BME280;17458;48.958;8.284;2022-09-01T05:55:53;100523.28;;;17.49;84.63
30708;BME280;17458;48.958;8.284;2022-09-01T05:58:42;100516.88;;;17.44;83.71
30708;BME280;17458;48.958;8.284;2022-09-01T06:01:28;100520.88;;;17.61;83.90
30708;BME280;17458;48.958;8.284;2022-09-01T06:04:18;100519.63;;;17.81;83.00
30708;BME280;17458;48.958;8.284;2022-09-01T06:07:03;100521.38;;;17.79;82.67
30708;BME280;17458;48.958;8.284;2022-09-01T06:09:54;100519.25;;;18.03;81.07
30708;BME280;17458;48.958;8.284;2022-09-01T06:12:40;100524.91;;;18.17;80.61
30708;BME280;17458;48.958;8.284;2022-09-01T06:15:24;100528.06;;;17.96;80.29
30708;BME280;17458;48.958;8.284;2022-09-01T06:18:14;100532.84;;;18.11;80.63
30708;BME280;17458;48.958;8.284;2022-09-01T06:21:10;100528.06;;;17.98;80.59
30708;BME280;17458;48.958;8.284;2022-09-01T06:23:59;100524.13;;;18.21;79.75
30708;BME280;17458;48.958;8.284;2022-09-01T06:26:44;100527.06;;;18.33;79.75
30708;BME280;17458;48.958;8.284;2022-09-01T06:29:29;100531.81;;;18.47;78.67
30708;BME280;17458;48.958;8.284;2022-09-01T06:32:13;100527.16;;;18.36;78.97
30708;BME280;17458;48.958;8.284;2022-09-01T06:34:58;100533.66;;;18.48;77.89
30708;BME280;17458;48.958;8.284;2022-09-01T06:37:44;100534.16;;;18.72;76.73
30708;BME280;17458;48.958;8.284;2022-09-01T06:40:39;100539.06;;;18.91;76.15
30708;BME280;17458;48.958;8.284;2022-09-01T06:43:24;100539.09;;;18.93;75.65
30708;BME280;17458;48.958;8.284;2022-09-01T06:46:08;100542.22;;;19.17;75.03
30708;BME280;17458;48.958;8.284;2022-09-01T06:48:54;100543.75;;;19.53;73.24
30708;BME280;17458;48.958;8.284;2022-09-01T06:51:42;100551.09;;;19.60;74.26
30708;BME280;17458;48.958;8.284;2022-09-01T06:54:26;100552.28;;;19.80;73.29
30708;BME280;17458;48.958;8.284;2022-09-01T06:57:12;100552.78;;;20.10;72.33
30708;BME280;17458;48.958;8.284;2022-09-01T06:59:56;100557.63;;;19.75;72.95
30708;BME280;17458;48.958;8.284;2022-09-01T07:02:40;100559.66;;;19.90;72.83
30708;BME280;17458;48.958;8.284;2022-09-01T07:05:54;100558.25;;;20.16;72.05
30708;BME280;17458;48.958;8.284;2022-09-01T07:08:55;100566.38;;;20.18;71.36
30708;BME280;17458;48.958;8.284;2022-09-01T07:11:46;100561.63;;;20.00;72.03
30708;BME280;17458;48.958;8.284;2022-09-01T07:14:32;100568.03;;;20.07;72.97
30708;BME280;17458;48.958;8.284;2022-09-01T07:17:16;100560.63;;;19.95;72.30
30708;BME280;17458;48.958;8.284;2022-09-01T07:20:02;100564.50;;;20.14;72.46
30708;BME280;17458;48.958;8.284;2022-09-01T07:22:48;100576.28;;;20.19;71.60
30708;BME280;17458;48.958;8.284;2022-09-01T07:25:44;100571.19;;;20.39;72.28
30708;BME280;17458;48.958;8.284;2022-09-01T07:28:40;100576.91;;;20.65;70.61
30708;BME280;17458;48.958;8.284;2022-09-01T07:31:31;100577.72;;;20.56;69.74
30708;BME280;17458;48.958;8.284;2022-09-01T07:34:17;100576.63;;;20.42;70.82
30708;BME280;17458;48.958;8.284;2022-09-01T07:37:01;100584.41;;;20.85;69.72
30708;BME280;17458;48.958;8.284;2022-09-01T07:39:47;100574.69;;;21.01;68.37
30708;BME280;17458;48.958;8.284;2022-09-01T07:42:54;100581.78;;;20.93;67.79
30708;BME280;17458;48.958;8.284;2022-09-01T07:46:19;100588.91;;;20.86;67.48
30708;BME280;17458;48.958;8.284;2022-09-01T07:49:04;100582.78;;;21.01;67.39
30708;BME280;17458;48.958;8.284;2022-09-01T07:51:48;100580.50;;;21.39;67.44
30708;BME280;17458;48.958;8.284;2022-09-01T07:54:35;100592.22;;;21.40;66.38
30708;BME280;17458;48.958;8.284;2022-09-01T07:57:20;100593.25;;;21.52;65.87
30708;BME280;17458;48.958;8.284;2022-09-01T08:00:07;100593.44;;;21.74;65.91
30708;BME280;17458;48.958;8.284;2022-09-01T08:02:58;100590.00;;;21.96;65.49
30708;BME280;17458;48.958;8.284;2022-09-01T08:05:43;100598.03;;;21.84;65.69
30708;BME280;17458;48.958;8.284;2022-09-01T08:08:27;100594.63;;;22.06;64.70
30708;BME280;17458;48.958;8.284;2022-09-01T08:11:19;100598.06;;;21.85;65.32
30708;BME280;17458;48.958;8.284;2022-09-01T08:14:03;100602.56;;;21.85;64.63
30708;BME280;17458;48.958;8.284;2022-09-01T08:16:47;100598.09;;;21.93;64.39
30708;BME280;17458;48.958;8.284;2022-09-01T08:19:32;100600.06;;;22.09;63.49
30708;BME280;17458;48.958;8.284;2022-09-01T08:22:22;100605.44;;;22.03;63.62
30708;BME280;17458;48.958;8.284;2022-09-01T08:25:24;100604.50;;;22.00;63.20
30708;BME280;17458;48.958;8.284;2022-09-01T08:28:13;100603.47;;;21.87;63.52
30708;BME280;17458;48.958;8.284;2022-09-01T08:30:59;100606.19;;;21.91;64.96
30708;BME280;17458;48.958;8.284;2022-09-01T08:33:45;100595.66;;;22.25;63.07
30708;BME280;17458;48.958;8.284;2022-09-01T08:36:31;100601.94;;;22.19;62.57
30708;BME280;17458;48.958;8.284;2022-09-01T08:39:15;100597.78;;;22.78;62.07
30708;BME280;17458;48.958;8.284;2022-09-01T08:42:15;100609.31;;;22.42;61.04
30708;BME280;17458;48.958;8.284;2022-09-01T08:45:24;100603.00;;;22.43;61.31
30708;BME280;17458;48.958;8.284;2022-09-01T08:48:18;100604.16;;;22.84;61.05
30708;BME280;17458;48.958;8.284;2022-09-01T08:51:25;100615.94;;;23.03;60.38
30708;BME280;17458;48.958;8.284;2022-09-01T08:54:25;100604.88;;;22.60;61.09
30708;BME280;17458;48.958;8.284;2022-09-01T08:57:33;100606.88;;;22.93;60.38
30708;BME280;17458;48.958;8.284;2022-09-01T09:00:52;100605.09;;;22.98;60.21
30708;BME280;17458;48.958;8.284;2022-09-01T09:03:42;100618.66;;;23.08;60.47
30708;BME280;17458;48.958;8.284;2022-09-01T09:10:25;100617.75;;;23.04;59.32
30708;BME280;17458;48.958;8.284;2022-09-01T09:13:43;100617.84;;;23.27;59.56
30708;BME280;17458;48.958;8.284;2022-09-01T09:16:36;100607.88;;;23.21;60.01
30708;BME280;17458;48.958;8.284;2022-09-01T09:19:39;100613.41;;;23.52;58.05
30708;BME280;17458;48.958;8.284;2022-09-01T09:22:23;100606.94;;;23.09;59.55
30708;BME280;17458;48.958;8.284;2022-09-01T09:25:11;100609.69;;;23.31;59.18
30708;BME280;17458;48.958;8.284;2022-09-01T09:27:57;100605.28;;;23.65;57.86
30708;BME280;17458;48.958;8.284;2022-09-01T09:30:42;100600.78;;;23.71;57.26
30708;BME280;17458;48.958;8.284;2022-09-01T09:33:37;100606.19;;;23.71;56.75
30708;BME280;17458;48.958;8.284;2022-09-01T09:36:31;100598.94;;;23.51;57.00
30708;BME280;17458;48.958;8.284;2022-09-01T09:39:17;100597.94;;;23.22;56.96
30708;BME280;17458;48.958;8.284;2022-09-01T09:42:07;100594.38;;;23.41;56.67
30708;BME280;17458;48.958;8.284;2022-09-01T09:44:52;100590.78;;;23.59;56.78
30708;BME280;17458;48.958;8.284;2022-09-01T09:47:42;100586.28;;;23.62;55.88
30708;BME280;17458;48.958;8.284;2022-09-01T09:50:29;100591.72;;;23.65;55.68
30708;BME280;17458;48.958;8.284;2022-09-01T09:53:31;100592.59;;;23.60;55.91
30708;BME280;17458;48.958;8.284;2022-09-01T09:56:21;100597.13;;;24.17;55.50
30708;BME280;17458;48.958;8.284;2022-09-01T10:02:24;100588.09;;;24.04;54.93
30708;BME280;17458;48.958;8.284;2022-09-01T10:05:32;100587.16;;;24.37;53.70
30708;BME280;17458;48.958;8.284;2022-09-01T10:11:24;100584.47;;;23.75;54.38
30708;BME280;17458;48.958;8.284;2022-09-01T10:14:21;100578.09;;;23.49;54.55
30708;BME280;17458;48.958;8.284;2022-09-01T10:17:19;100581.78;;;23.90;54.29
30708;BME280;17458;48.958;8.284;2022-09-01T10:20:08;100585.41;;;23.82;53.01
30708;BME280;17458;48.958;8.284;2022-09-01T10:22:55;100584.47;;;24.41;53.37
30708;BME280;17458;48.958;8.284;2022-09-01T10:25:39;100588.09;;;23.77;52.85
30708;BME280;17458;48.958;8.284;2022-09-01T10:28:26;100584.50;;;23.54;53.64
30708;BME280;17458;48.958;8.284;2022-09-01T10:31:13;100584.50;;;23.55;53.52
30708;BME280;17458;48.958;8.284;2022-09-01T10:34:00;100579.03;;;24.37;52.88
30708;BME280;17458;48.958;8.284;2022-09-01T10:36:46;100576.31;;;24.31;51.07
30708;BME280;17458;48.958;8.284;2022-09-01T10:39:30;100579.06;;;24.25;50.08
30708;BME280;17458;48.958;8.284;2022-09-01T10:42:18;100575.44;;;23.91;50.52
30708;BME280;17458;48.958;8.284;2022-09-01T10:45:02;100570.00;;;24.07;50.80
30708;BME280;17458;48.958;8.284;2022-09-01T10:47:46;100575.41;;;24.29;50.05
30708;BME280;17458;48.958;8.284;2022-09-01T10:50:31;100563.69;;;23.95;50.09
30708;BME280;17458;48.958;8.284;2022-09-01T10:56:25;100562.75;;;24.33;50.93
30708;BME280;17458;48.958;8.284;2022-09-01T11:07:35;100565.38;;;23.04;53.98
30708;BME280;17458;48.958;8.284;2022-09-01T11:10:38;100559.19;;;23.58;52.70
30708;BME280;17458;48.958;8.284;2022-09-01T11:13:35;100562.78;;;23.52;53.48
30708;BME280;17458;48.958;8.284;2022-09-01T11:16:35;100561.00;;;23.68;53.27
30708;BME280;17458;48.958;8.284;2022-09-01T11:31:25;100554.50;;;24.66;50.72
30708;BME280;17458;48.958;8.284;2022-09-01T11:34:17;100549.91;;;24.78;49.47
30708;BME280;17458;48.958;8.284;2022-09-01T11:37:11;100549.13;;;24.45;50.13
30708;BME280;17458;48.958;8.284;2022-09-01T11:39:59;100545.31;;;24.92;50.79
30708;BME280;17458;48.958;8.284;2022-09-01T11:42:48;100544.16;;;25.35;49.00
30708;BME280;17458;48.958;8.284;2022-09-01T11:45:43;100551.53;;;25.15;48.44
30708;BME280;17458;48.958;8.284;2022-09-01T11:48:33;100540.00;;;24.63;48.73
30708;BME280;17458;48.958;8.284;2022-09-01T11:51:18;100544.63;;;24.41;49.42
30708;BME280;17458;48.958;8.284;2022-09-01T11:54:04;100534.72;;;24.11;50.47
30708;BME280;17458;48.958;8.284;2022-09-01T11:56:48;100530.22;;;23.87;50.85
30708;BME280;17458;48.958;8.284;2022-09-01T11:59:34;100529.38;;;23.68;51.80
30708;BME280;17458;48.958;8.284;2022-09-01T12:02:22;100523.88;;;24.00;51.11
30708;BME280;17458;48.958;8.284;2022-09-01T12:08:16;100518.00;;;25.19;48.92
30708;BME280;17458;48.958;8.284;2022-09-01T12:11:34;100522.44;;;25.32;45.82
30708;BME280;17458;48.958;8.284;2022-09-01T12:14:20;100516.28;;;25.07;46.44
30708;BME280;17458;48.958;8.284;2022-09-01T12:17:05;100521.31;;;25.61;48.12
30708;BME280;17458;48.958;8.284;2022-09-01T12:19:49;100511.19;;;25.81;47.34
30708;BME280;17458;48.958;8.284;2022-09-01T12:22:33;100505.78;;;25.78;44.56
30708;BME280;17458;48.958;8.284;2022-09-01T12:25:29;100509.28;;;25.88;42.86
30708;BME280;17458;48.958;8.284;2022-09-01T12:28:14;100506.59;;;25.86;43.45
30708;BME280;17458;48.958;8.284;2022-09-01T12:31:02;100514.19;;;25.43;44.99
30708;BME280;17458;48.958;8.284;2022-09-01T12:33:49;100511.56;;;25.32;45.45
30708;BME280;17458;48.958;8.284;2022-09-01T12:36:35;100502.50;;;25.30;45.61
30708;BME280;17458;48.958;8.284;2022-09-01T12:39:22;100506.25;;;26.20;44.77
30708;BME280;17458;48.958;8.284;2022-09-01T12:42:08;100509.06;;;26.86;43.06
30708;BME280;17458;48.958;8.284;2022-09-01T12:45:00;100507.97;;;26.30;42.86
30708;BME280;17458;48.958;8.284;2022-09-01T12:47:46;100497.44;;;26.71;42.67
30708;BME280;17458;48.958;8.284;2022-09-01T12:50:34;100500.75;;;26.96;42.80
30708;BME280;17458;48.958;8.284;2022-09-01T12:53:20;100499.00;;;26.92;42.84
30708;BME280;17458;48.958;8.284;2022-09-01T12:59:20;100502.66;;;26.16;43.99
30708;BME280;17458;48.958;8.284;2022-09-01T13:02:24;100494.59;;;26.05;44.25
30708;BME280;17458;48.958;8.284;2022-09-01T13:08:17;100498.63;;;26.52;44.09
30708;BME280;17458;48.958;8.284;2022-09-01T13:11:10;100491.25;;;26.60;42.53
30708;BME280;17458;48.958;8.284;2022-09-01T13:13:56;100489.47;;;26.56;42.60
30708;BME280;17458;48.958;8.284;2022-09-01T13:16:40;100483.69;;;26.10;43.06
30708;BME280;17458;48.958;8.284;2022-09-01T13:19:25;100483.69;;;26.10;42.05
30708;BME280;17458;48.958;8.284;2022-09-01T13:22:09;100482.00;;;26.73;42.05
30708;BME280;17458;48.958;8.284;2022-09-01T13:24:53;100482.16;;;26.61;43.01
30708;BME280;17458;48.958;8.284;2022-09-01T13:27:38;100477.06;;;26.35;43.31
30708;BME280;17458;48.958;8.284;2022-09-01T13:30:27;100473.03;;;26.65;43.33
30708;BME280;17458;48.958;8.284;2022-09-01T13:33:12;100472.72;;;26.85;42.70
30708;BME280;17458;48.958;8.284;2022-09-01T13:35:57;100473.16;;;27.19;41.73
30708;BME280;17458;48.958;8.284;2022-09-01T13:38:41;100465.09;;;26.47;41.78
30708;BME280;17458;48.958;8.284;2022-09-01T13:41:25;100456.25;;;26.25;42.69
30708;BME280;17458;48.958;8.284;2022-09-01T13:44:09;100462.53;;;26.36;42.64
30708;BME280;17458;48.958;8.284;2022-09-01T13:46:54;100462.16;;;25.86;43.66
30708;BME280;17458;48.958;8.284;2022-09-01T13:49:38;100458.66;;;25.71;43.83
30708;BME280;17458;48.958;8.284;2022-09-01T13:52:22;100453.53;;;26.25;43.88
30708;BME280;17458;48.958;8.284;2022-09-01T13:55:08;100455.19;;;26.40;43.33
30708;BME280;17458;48.958;8.284;2022-09-01T13:57:53;100450.75;;;26.34;43.48
30708;BME280;17458;48.958;8.284;2022-09-01T14:00:41;100448.59;;;26.59;42.62
30708;BME280;17458;48.958;8.284;2022-09-01T14:03:25;100447.25;;;26.89;41.46
30708;BME280;17458;48.958;8.284;2022-09-01T14:06:09;100442.00;;;26.75;41.69
30708;BME280;17458;48.958;8.284;2022-09-01T14:08:53;100439.81;;;26.37;41.37
30708;BME280;17458;48.958;8.284;2022-09-01T14:11:37;100432.38;;;26.50;41.47
30708;BME280;17458;48.958;8.284;2022-09-01T14:14:22;100435.84;;;26.61;41.18
30708;BME280;17458;48.958;8.284;2022-09-01T14:17:06;100436.25;;;26.97;41.45
30708;BME280;17458;48.958;8.284;2022-09-01T14:19:50;100432.06;;;27.31;41.28
30708;BME280;17458;48.958;8.284;2022-09-01T14:22:34;100421.94;;;27.38;40.50
30708;BME280;17458;48.958;8.284;2022-09-01T14:25:19;100431.75;;;27.49;40.83
30708;BME280;17458;48.958;8.284;2022-09-01T14:28:04;100427.00;;;27.62;40.81
30708;BME280;17458;48.958;8.284;2022-09-01T14:30:49;100426.63;;;27.30;41.81
30708;BME280;17458;48.958;8.284;2022-09-01T14:33:33;100417.16;;;26.97;40.83
30708;BME280;17458;48.958;8.284;2022-09-01T14:36:22;100421.38;;;27.17;41.31
30708;BME280;17458;48.958;8.284;2022-09-01T14:39:06;100416.88;;;27.67;41.17
30708;BME280;17458;48.958;8.284;2022-09-01T14:41:50;100416.13;;;27.61;39.84
30708;BME280;17458;48.958;8.284;2022-09-01T14:44:35;100412.25;;;27.72;40.49
30708;BME280;17458;48.958;8.284;2022-09-01T14:47:20;100407.16;;;26.99;41.19
30708;BME280;17458;48.958;8.284;2022-09-01T14:50:07;100403.25;;;27.13;41.05
30708;BME280;17458;48.958;8.284;2022-09-01T14:52:53;100408.38;;;26.76;42.30
30708;BME280;17458;48.958;8.284;2022-09-01T14:55:38;100396.69;;;26.68;41.71
30708;BME280;17458;48.958;8.284;2022-09-01T14:58:22;100389.97;;;26.92;41.83
30708;BME280;17458;48.958;8.284;2022-09-01T15:01:07;100394.22;;;27.11;42.14
30708;BME280;17458;48.958;8.284;2022-09-01T15:03:53;100398.09;;;26.95;41.53
30708;BME280;17458;48.958;8.284;2022-09-01T15:06:38;100396.59;;;26.76;41.94
30708;BME280;17458;48.958;8.284;2022-09-01T15:09:22;100391.38;;;27.19;41.02
30708;BME280;17458;48.958;8.284;2022-09-01T15:12:07;100395.63;;;26.80;41.35
30708;BME280;17458;48.958;8.284;2022-09-01T15:14:52;100381.47;;;26.54;42.04
30708;BME280;17458;48.958;8.284;2022-09-01T15:17:36;100376.59;;;26.75;41.53
30708;BME280;17458;48.958;8.284;2022-09-01T15:20:20;100374.47;;;26.37;41.81